sensor_id;sensor_type;location;lat;lon;timestamp;temperature;humidity
78448;SHT31;67742;51.972;5.682;2023-04-06T00:00:31;8.6;46.3
78448;SHT31;67742;51.972;5.682;2023-04-06T00:03:00;8.5;46.5
78448;SHT31;67742;51.972;5.682;2023-04-06T00:05:30;8.5;46.3
78448;SHT31;67742;51.972;5.682;2023-04-06T00:08:00;8.5;46.5
78448;SHT31;67742;51.972;5.682;2023-04-06T00:10:32;8.5;46.4
78448;SHT31;67742;51.972;5.682;2023-04-06T00:13:02;8.5;46.5
78448;SHT31;67742;51.972;5.682;2023-04-06T00:15:31;8.5;46.5
78448;SHT31;67742;51.972;5.682;2023-04-06T00:18:01;8.4;46.6
78448;SHT31;67742;51.972;5.682;2023-04-06T00:20:31;8.4;46.7
78448;SHT31;67742;51.972;5.682;2023-04-06T00:23:01;8.4;46.7
78448;SHT31;67742;51.972;5.682;2023-04-06T00:25:30;8.4;46.9
78448;SHT31;67742;51.972;5.682;2023-04-06T00:27:59;8.4;46.5
78448;SHT31;67742;51.972;5.682;2023-04-06T00:30:30;8.4;46.9
78448;SHT31;67742;51.972;5.682;2023-04-06T00:33:00;8.4;46.9
78448;SHT31;67742;51.972;5.682;2023-04-06T00:35:29;8.4;46.7
78448;SHT31;67742;51.972;5.682;2023-04-06T00:37:59;8.3;47.0
78448;SHT31;67742;51.972;5.682;2023-04-06T00:40:28;8.3;46.9
78448;SHT31;67742;51.972;5.682;2023-04-06T00:43:00;8.3;46.9
78448;SHT31;67742;51.972;5.682;2023-04-06T00:45:30;8.3;47.0
78448;SHT31;67742;51.972;5.682;2023-04-06T00:47:59;8.3;46.9
78448;SHT31;67742;51.972;5.682;2023-04-06T00:50:29;8.3;46.5
78448;SHT31;67742;51.972;5.682;2023-04-06T00:52:59;8.3;46.9
78448;SHT31;67742;51.972;5.682;2023-04-06T00:55:29;8.3;47.1
78448;SHT31;67742;51.972;5.682;2023-04-06T00:58:01;8.2;46.8
78448;SHT31;67742;51.972;5.682;2023-04-06T01:00:32;8.2;46.8
78448;SHT31;67742;51.972;5.682;2023-04-06T01:03:02;8.2;46.9
78448;SHT31;67742;51.972;5.682;2023-04-06T01:05:35;8.2;47.0
78448;SHT31;67742;51.972;5.682;2023-04-06T10:23:05;13.0;45.7
78448;SHT31;67742;51.972;5.682;2023-04-06T10:29:13;13.2;46.4
78448;SHT31;67742;51.972;5.682;2023-04-06T10:31:54;13.3;46.3
78448;SHT31;67742;51.972;5.682;2023-04-06T10:34:37;13.3;45.8
78448;SHT31;67742;51.972;5.682;2023-04-06T10:37:22;13.4;46.3
78448;SHT31;67742;51.972;5.682;2023-04-06T10:43:56;13.6;45.8
78448;SHT31;67742;51.972;5.682;2023-04-06T10:46:39;13.7;45.7
78448;SHT31;67742;51.972;5.682;2023-04-06T10:49:12;13.7;46.1
78448;SHT31;67742;51.972;5.682;2023-04-06T10:52:00;13.8;46.5
78448;SHT31;67742;51.972;5.682;2023-04-06T10:54:52;13.9;46.3
78448;SHT31;67742;51.972;5.682;2023-04-06T10:57:30;13.9;47.2
78448;SHT31;67742;51.972;5.682;2023-04-06T11:00:00;14.0;47.4
78448;SHT31;67742;51.972;5.682;2023-04-06T11:02:58;14.0;48.4
78448;SHT31;67742;51.972;5.682;2023-04-06T11:05:52;14.0;49.2
78448;SHT31;67742;51.972;5.682;2023-04-06T11:08:52;14.1;50.8
78448;SHT31;67742;51.972;5.682;2023-04-06T11:11:26;14.1;51.7
78448;SHT31;67742;51.972;5.682;2023-04-06T11:13:59;14.1;52.2
78448;SHT31;67742;51.972;5.682;2023-04-06T11:20:17;14.1;53.3
78448;SHT31;67742;51.972;5.682;2023-04-06T11:22:58;14.1;52.3
78448;SHT31;67742;51.972;5.682;2023-04-06T11:25:52;14.1;52.4
78448;SHT31;67742;51.972;5.682;2023-04-06T11:28:36;14.1;53.3
78448;SHT31;67742;51.972;5.682;2023-04-06T11:34:24;14.0;53.2
78448;SHT31;67742;51.972;5.682;2023-04-06T11:36:58;14.0;53.3
78448;SHT31;67742;51.972;5.682;2023-04-06T11:40:21;13.9;53.8
78448;SHT31;67742;51.972;5.682;2023-04-06T11:42:57;13.9;52.5
78448;SHT31;67742;51.972;5.682;2023-04-06T11:46:04;13.9;53.2
78448;SHT31;67742;51.972;5.682;2023-04-06T12:25:29;13.4;54.6
78448;SHT31;67742;51.972;5.682;2023-04-06T12:27:59;13.4;54.3
78448;SHT31;67742;51.972;5.682;2023-04-06T14:30:13;13.2;58.2
78448;SHT31;67742;51.972;5.682;2023-04-06T14:32:56;13.2;58.8
78448;SHT31;67742;51.972;5.682;2023-04-06T14:35:46;13.2;58.5
78448;SHT31;67742;51.972;5.682;2023-04-06T14:38:56;13.2;58.0
78448;SHT31;67742;51.972;5.682;2023-04-06T14:41:54;13.2;57.8
78448;SHT31;67742;51.972;5.682;2023-04-06T14:44:32;13.2;58.8
78448;SHT31;67742;51.972;5.682;2023-04-06T14:47:22;13.2;58.1
78448;SHT31;67742;51.972;5.682;2023-04-06T14:50:12;13.1;58.9
78448;SHT31;67742;51.972;5.682;2023-04-06T15:02:54;13.1;58.8
78448;SHT31;67742;51.972;5.682;2023-04-06T15:05:26;13.1;59.3
78448;SHT31;67742;51.972;5.682;2023-04-06T15:08:16;13.1;59.2
78448;SHT31;67742;51.972;5.682;2023-04-06T15:11:03;13.1;59.2
78448;SHT31;67742;51.972;5.682;2023-04-06T15:13:34;13.1;59.3
78448;SHT31;67742;51.972;5.682;2023-04-06T15:19:46;13.1;59.5
78448;SHT31;67742;51.972;5.682;2023-04-06T15:22:36;13.0;60.1
78448;SHT31;67742;51.972;5.682;2023-04-06T15:25:54;13.0;59.7
78448;SHT31;67742;51.972;5.682;2023-04-06T15:28:26;13.0;60.0
78448;SHT31;67742;51.972;5.682;2023-04-06T15:31:19;13.0;59.8
78448;SHT31;67742;51.972;5.682;2023-04-06T15:38:06;13.0;59.7
78448;SHT31;67742;51.972;5.682;2023-04-06T15:41:01;13.0;59.8
78448;SHT31;67742;51.972;5.682;2023-04-06T15:43:48;13.0;59.6
78448;SHT31;67742;51.972;5.682;2023-04-06T15:46:20;13.0;60.1
78448;SHT31;67742;51.972;5.682;2023-04-06T15:59:30;13.1;59.7
78448;SHT31;67742;51.972;5.682;2023-04-06T16:02:53;13.1;60.5
78448;SHT31;67742;51.972;5.682;2023-04-06T16:05:31;13.1;60.4
78448;SHT31;67742;51.972;5.682;2023-04-06T16:45:50;13.3;59.9
78448;SHT31;67742;51.972;5.682;2023-04-06T16:48:21;13.1;59.7
78448;SHT31;67742;51.972;5.682;2023-04-06T16:50:51;13.0;60.5
78448;SHT31;67742;51.972;5.682;2023-04-06T16:53:20;13.0;61.1
78448;SHT31;67742;51.972;5.682;2023-04-06T16:55:50;12.9;60.7
78448;SHT31;67742;51.972;5.682;2023-04-06T16:58:19;12.8;60.7
78448;SHT31;67742;51.972;5.682;2023-04-06T17:00:49;12.8;61.7
78448;SHT31;67742;51.972;5.682;2023-04-06T17:03:18;12.7;62.3
78448;SHT31;67742;51.972;5.682;2023-04-06T17:05:48;12.6;62.6
78448;SHT31;67742;51.972;5.682;2023-04-06T17:08:17;12.6;61.9
78448;SHT31;67742;51.972;5.682;2023-04-06T17:10:47;12.5;62.9
78448;SHT31;67742;51.972;5.682;2023-04-06T17:13:16;12.4;63.0
78448;SHT31;67742;51.972;5.682;2023-04-06T17:15:46;12.4;63.3
78448;SHT31;67742;51.972;5.682;2023-04-06T17:18:17;12.4;63.4
78448;SHT31;67742;51.972;5.682;2023-04-06T17:20:47;12.3;63.7
78448;SHT31;67742;51.972;5.682;2023-04-06T17:23:16;12.3;63.7
78448;SHT31;67742;51.972;5.682;2023-04-06T17:28:15;12.2;63.6
78448;SHT31;67742;51.972;5.682;2023-04-06T17:30:44;12.2;64.7
78448;SHT31;67742;51.972;5.682;2023-04-06T17:33:14;12.2;64.9
78448;SHT31;67742;51.972;5.682;2023-04-06T17:35:44;12.2;64.7
78448;SHT31;67742;51.972;5.682;2023-04-06T17:38:14;12.1;64.1
78448;SHT31;67742;51.972;5.682;2023-04-06T17:40:45;12.1;64.7
78448;SHT31;67742;51.972;5.682;2023-04-06T17:43:15;12.1;64.5
78448;SHT31;67742;51.972;5.682;2023-04-06T17:45:47;12.1;64.6
78448;SHT31;67742;51.972;5.682;2023-04-06T17:48:18;12.0;64.3
78448;SHT31;67742;51.972;5.682;2023-04-06T17:50:48;12.0;65.0
78448;SHT31;67742;51.972;5.682;2023-04-06T17:53:17;12.0;66.1
78448;SHT31;67742;51.972;5.682;2023-04-06T17:55:47;12.0;65.8
78448;SHT31;67742;51.972;5.682;2023-04-06T17:58:18;12.0;65.7
78448;SHT31;67742;51.972;5.682;2023-04-06T18:00:48;12.0;65.9
78448;SHT31;67742;51.972;5.682;2023-04-06T18:03:18;12.0;65.4
78448;SHT31;67742;51.972;5.682;2023-04-06T18:05:48;12.0;66.3
78448;SHT31;67742;51.972;5.682;2023-04-06T18:08:18;11.9;65.2
78448;SHT31;67742;51.972;5.682;2023-04-06T18:10:48;11.9;66.4
78448;SHT31;67742;51.972;5.682;2023-04-06T18:13:19;11.9;65.6
78448;SHT31;67742;51.972;5.682;2023-04-06T18:15:48;11.9;66.5
78448;SHT31;67742;51.972;5.682;2023-04-06T18:18:18;11.9;65.0
78448;SHT31;67742;51.972;5.682;2023-04-06T18:26:21;11.9;65.9
78448;SHT31;67742;51.972;5.682;2023-04-06T18:29:12;11.9;65.8
78448;SHT31;67742;51.972;5.682;2023-04-06T18:31:42;11.9;65.4
78448;SHT31;67742;51.972;5.682;2023-04-06T18:34:17;11.9;65.7
78448;SHT31;67742;51.972;5.682;2023-04-06T18:36:46;11.9;65.4
78448;SHT31;67742;51.972;5.682;2023-04-06T18:39:16;11.9;65.6
78448;SHT31;67742;51.972;5.682;2023-04-06T18:41:46;11.9;66.1
78448;SHT31;67742;51.972;5.682;2023-04-06T18:44:16;11.9;66.8
78448;SHT31;67742;51.972;5.682;2023-04-06T18:46:45;11.9;66.2
78448;SHT31;67742;51.972;5.682;2023-04-06T18:49:15;11.9;66.1
78448;SHT31;67742;51.972;5.682;2023-04-06T18:51:44;11.9;66.5
78448;SHT31;67742;51.972;5.682;2023-04-06T18:54:14;11.9;66.8
78448;SHT31;67742;51.972;5.682;2023-04-06T18:56:44;11.9;67.1
78448;SHT31;67742;51.972;5.682;2023-04-06T18:59:14;11.9;66.1
78448;SHT31;67742;51.972;5.682;2023-04-06T19:01:45;11.9;65.8
78448;SHT31;67742;51.972;5.682;2023-04-06T19:04:20;11.9;67.3
78448;SHT31;67742;51.972;5.682;2023-04-06T19:06:52;11.9;66.3
78448;SHT31;67742;51.972;5.682;2023-04-06T19:09:22;11.9;66.1
78448;SHT31;67742;51.972;5.682;2023-04-06T19:11:51;11.9;65.9
78448;SHT31;67742;51.972;5.682;2023-04-06T19:14:21;11.9;66.2
78448;SHT31;67742;51.972;5.682;2023-04-06T19:16:50;11.9;66.4
78448;SHT31;67742;51.972;5.682;2023-04-06T19:19:20;11.9;66.4
78448;SHT31;67742;51.972;5.682;2023-04-06T19:21:50;11.9;67.2
78448;SHT31;67742;51.972;5.682;2023-04-06T19:24:19;11.9;66.3
78448;SHT31;67742;51.972;5.682;2023-04-06T19:26:49;11.9;66.2
78448;SHT31;67742;51.972;5.682;2023-04-06T19:29:18;11.9;66.4
78448;SHT31;67742;51.972;5.682;2023-04-06T19:31:49;11.9;66.6
78448;SHT31;67742;51.972;5.682;2023-04-06T19:34:18;11.9;66.3
78448;SHT31;67742;51.972;5.682;2023-04-06T19:36:48;11.9;65.7
78448;SHT31;67742;51.972;5.682;2023-04-06T19:39:18;11.9;66.2
78448;SHT31;67742;51.972;5.682;2023-04-06T19:41:47;11.9;67.0
78448;SHT31;67742;51.972;5.682;2023-04-06T19:44:17;11.9;66.1
78448;SHT31;67742;51.972;5.682;2023-04-06T19:46:49;11.9;66.2
78448;SHT31;67742;51.972;5.682;2023-04-06T19:49:27;11.9;66.2
78448;SHT31;67742;51.972;5.682;2023-04-06T19:51:56;11.9;66.0
78448;SHT31;67742;51.972;5.682;2023-04-06T19:54:26;11.9;66.2
78448;SHT31;67742;51.972;5.682;2023-04-06T19:56:55;11.9;66.2
78448;SHT31;67742;51.972;5.682;2023-04-06T19:59:25;11.9;65.9
78448;SHT31;67742;51.972;5.682;2023-04-06T20:01:56;12.0;66.4
78448;SHT31;67742;51.972;5.682;2023-04-06T20:04:26;12.0;66.1
78448;SHT31;67742;51.972;5.682;2023-04-06T20:06:56;12.0;66.0
78448;SHT31;67742;51.972;5.682;2023-04-06T20:09:26;12.0;65.8
78448;SHT31;67742;51.972;5.682;2023-04-06T20:11:56;12.0;65.7
78448;SHT31;67742;51.972;5.682;2023-04-06T20:14:28;12.0;66.9
78448;SHT31;67742;51.972;5.682;2023-04-06T20:16:58;12.0;66.5
78448;SHT31;67742;51.972;5.682;2023-04-06T20:19:30;12.0;66.3
78448;SHT31;67742;51.972;5.682;2023-04-06T20:21:59;12.0;65.6
78448;SHT31;67742;51.972;5.682;2023-04-06T20:24:30;12.0;66.5
78448;SHT31;67742;51.972;5.682;2023-04-06T20:27:00;12.0;65.7
78448;SHT31;67742;51.972;5.682;2023-04-06T20:29:30;12.0;66.1
78448;SHT31;67742;51.972;5.682;2023-04-06T20:31:59;12.0;65.5
78448;SHT31;67742;51.972;5.682;2023-04-06T20:34:29;12.0;66.1
78448;SHT31;67742;51.972;5.682;2023-04-06T20:36:59;12.1;66.5
78448;SHT31;67742;51.972;5.682;2023-04-06T20:39:31;12.1;66.3
78448;SHT31;67742;51.972;5.682;2023-04-06T20:42:03;12.1;65.7
78448;SHT31;67742;51.972;5.682;2023-04-06T20:44:34;12.1;66.5
78448;SHT31;67742;51.972;5.682;2023-04-06T20:47:03;12.1;67.5
78448;SHT31;67742;51.972;5.682;2023-04-06T20:49:33;12.1;66.5
78448;SHT31;67742;51.972;5.682;2023-04-06T20:52:03;12.1;65.5
78448;SHT31;67742;51.972;5.682;2023-04-06T20:54:32;12.1;65.8
78448;SHT31;67742;51.972;5.682;2023-04-06T20:57:02;12.1;65.7
78448;SHT31;67742;51.972;5.682;2023-04-06T20:59:34;12.1;65.8
78448;SHT31;67742;51.972;5.682;2023-04-06T21:02:04;12.1;66.1
78448;SHT31;67742;51.972;5.682;2023-04-06T21:04:35;12.1;66.3
78448;SHT31;67742;51.972;5.682;2023-04-06T21:07:05;12.1;66.4
78448;SHT31;67742;51.972;5.682;2023-04-06T21:09:37;12.1;65.9
78448;SHT31;67742;51.972;5.682;2023-04-06T21:12:07;12.1;66.7
78448;SHT31;67742;51.972;5.682;2023-04-06T21:14:37;12.1;67.3
78448;SHT31;67742;51.972;5.682;2023-04-06T21:17:07;12.1;66.4
78448;SHT31;67742;51.972;5.682;2023-04-06T21:19:37;12.1;68.2
78448;SHT31;67742;51.972;5.682;2023-04-06T21:22:07;12.1;67.6
78448;SHT31;67742;51.972;5.682;2023-04-06T21:24:36;12.1;67.2
78448;SHT31;67742;51.972;5.682;2023-04-06T21:27:08;12.1;67.2
78448;SHT31;67742;51.972;5.682;2023-04-06T21:29:39;12.1;67.2
78448;SHT31;67742;51.972;5.682;2023-04-06T21:32:09;12.1;69.0
78448;SHT31;67742;51.972;5.682;2023-04-06T21:34:40;12.1;67.6
78448;SHT31;67742;51.972;5.682;2023-04-06T21:37:12;12.2;67.1
78448;SHT31;67742;51.972;5.682;2023-04-06T21:39:42;12.2;68.4
78448;SHT31;67742;51.972;5.682;2023-04-06T21:42:12;12.2;66.8
78448;SHT31;67742;51.972;5.682;2023-04-06T21:44:42;12.2;66.3
78448;SHT31;67742;51.972;5.682;2023-04-06T21:47:11;12.2;66.5
78448;SHT31;67742;51.972;5.682;2023-04-06T21:49:41;12.2;67.4
78448;SHT31;67742;51.972;5.682;2023-04-06T21:52:10;12.2;68.3
78448;SHT31;67742;51.972;5.682;2023-04-06T21:54:40;12.2;67.0
78448;SHT31;67742;51.972;5.682;2023-04-06T21:57:10;12.2;67.2
78448;SHT31;67742;51.972;5.682;2023-04-06T21:59:40;12.2;67.5
78448;SHT31;67742;51.972;5.682;2023-04-06T22:02:09;12.2;67.6
78448;SHT31;67742;51.972;5.682;2023-04-06T22:04:39;12.3;67.3
78448;SHT31;67742;51.972;5.682;2023-04-06T22:07:08;12.3;68.3
78448;SHT31;67742;51.972;5.682;2023-04-06T22:09:38;12.3;67.6
78448;SHT31;67742;51.972;5.682;2023-04-06T22:12:08;12.3;65.9
78448;SHT31;67742;51.972;5.682;2023-04-06T22:14:37;12.3;67.3
78448;SHT31;67742;51.972;5.682;2023-04-06T22:17:07;12.3;68.7
78448;SHT31;67742;51.972;5.682;2023-04-06T22:19:37;12.3;69.2
78448;SHT31;67742;51.972;5.682;2023-04-06T22:22:07;12.3;69.3
78448;SHT31;67742;51.972;5.682;2023-04-06T22:24:37;12.3;68.5
78448;SHT31;67742;51.972;5.682;2023-04-06T22:27:06;12.3;69.3
78448;SHT31;67742;51.972;5.682;2023-04-06T22:29:36;12.3;69.7
78448;SHT31;67742;51.972;5.682;2023-04-06T22:32:06;12.3;69.2
78448;SHT31;67742;51.972;5.682;2023-04-06T22:34:35;12.3;69.9
78448;SHT31;67742;51.972;5.682;2023-04-06T22:37:05;12.3;70.0
78448;SHT31;67742;51.972;5.682;2023-04-06T22:39:34;12.3;70.4
78448;SHT31;67742;51.972;5.682;2023-04-06T22:42:05;12.2;70.4
78448;SHT31;67742;51.972;5.682;2023-04-06T22:44:35;12.2;70.8
78448;SHT31;67742;51.972;5.682;2023-04-06T22:47:04;12.2;70.6
78448;SHT31;67742;51.972;5.682;2023-04-06T22:49:34;12.2;70.6
78448;SHT31;67742;51.972;5.682;2023-04-06T22:52:03;12.2;71.1
78448;SHT31;67742;51.972;5.682;2023-04-06T22:54:33;12.2;70.9
78448;SHT31;67742;51.972;5.682;2023-04-06T22:57:02;12.2;70.8
78448;SHT31;67742;51.972;5.682;2023-04-06T22:59:32;12.2;71.2
78448;SHT31;67742;51.972;5.682;2023-04-06T23:02:02;12.2;70.9
78448;SHT31;67742;51.972;5.682;2023-04-06T23:04:32;12.2;70.9
78448;SHT31;67742;51.972;5.682;2023-04-06T23:07:02;12.2;70.3
78448;SHT31;67742;51.972;5.682;2023-04-06T23:09:32;12.2;70.7
78448;SHT31;67742;51.972;5.682;2023-04-06T23:12:02;12.2;70.3
78448;SHT31;67742;51.972;5.682;2023-04-06T23:14:32;12.2;70.1
78448;SHT31;67742;51.972;5.682;2023-04-06T23:17:02;12.2;70.1
78448;SHT31;67742;51.972;5.682;2023-04-06T23:19:32;12.2;70.2
78448;SHT31;67742;51.972;5.682;2023-04-06T23:22:01;12.2;70.4
78448;SHT31;67742;51.972;5.682;2023-04-06T23:27:06;12.1;70.6
78448;SHT31;67742;51.972;5.682;2023-04-06T23:29:37;12.1;70.6
78448;SHT31;67742;51.972;5.682;2023-04-06T23:32:07;12.1;70.1
78448;SHT31;67742;51.972;5.682;2023-04-06T23:34:37;12.0;70.6
78448;SHT31;67742;51.972;5.682;2023-04-06T23:37:06;12.0;70.7
78448;SHT31;67742;51.972;5.682;2023-04-06T23:39:36;12.0;70.9
78448;SHT31;67742;51.972;5.682;2023-04-06T23:42:06;12.0;71.2
78448;SHT31;67742;51.972;5.682;2023-04-06T23:44:36;12.0;70.8
78448;SHT31;67742;51.972;5.682;2023-04-06T23:47:05;12.0;70.7
78448;SHT31;67742;51.972;5.682;2023-04-06T23:49:37;11.9;71.2
78448;SHT31;67742;51.972;5.682;2023-04-06T23:52:06;11.9;71.0
78448;SHT31;67742;51.972;5.682;2023-04-06T23:54:36;11.9;71.3
78448;SHT31;67742;51.972;5.682;2023-04-06T23:57:05;11.9;71.4
78448;SHT31;67742;51.972;5.682;2023-04-06T23:59:35;11.9;71.3
